Time;durP1;ratioP1;P1;durP2;ratioP2;P2;SDS_P1;SDS_P2;PMS_P1;PMS_P2;Temp;Humidity;BMP_temperature;BMP_pressure;BME280_temperature;BME280_humidity;BME280_pressure;Samples;Min_cycle;Max_cycle;Signal;HPM_P1;HPM_P2
2023/06/11 00:00:09;;;;;;;9.80;6.05;;;19.00;99.90;;;;;;5026850;28;20068;-63
2023/06/11 00:02:35;;;;;;;14.10;5.80;;;19.00;99.90;;;;;;5051617;28;20435;-65
2023/06/11 00:05:07;;;;;;;11.57;6.20;;;19.00;99.90;;;;;;5079505;27;20113;-64
2023/06/11 00:07:39;;;;;;;15.30;6.10;;;19.00;99.90;;;;;;5049805;28;20049;-65
2023/06/11 00:10:06;;;;;;;14.45;5.78;;;19.00;99.90;;;;;;5053346;28;20036;-66
2023/06/11 00:12:32;;;;;;;10.23;5.25;;;19.10;99.90;;;;;;5036878;28;20094;-66
2023/06/11 00:15:02;;;;;;;13.05;5.53;;;19.10;99.90;;;;;;5039375;28;20045;-64
2023/06/11 00:17:29;;;;;;;6.07;4.65;;;19.10;99.90;;;;;;5050892;28;20609;-64
2023/06/11 00:19:55;;;;;;;9.77;5.63;;;19.20;99.90;;;;;;5052469;28;20394;-66
2023/06/11 00:22:20;;;;;;;11.73;5.70;;;19.20;99.90;;;;;;5050154;28;20075;-64
2023/06/11 00:24:46;;;;;;;12.02;5.90;;;19.20;99.90;;;;;;5051142;28;20405;-65
2023/06/11 00:27:12;;;;;;;13.95;6.13;;;19.20;99.90;;;;;;5039242;28;20036;-64
2023/06/11 00:29:37;;;;;;;11.95;5.53;;;19.20;99.90;;;;;;5047371;28;20274;-64
2023/06/11 00:32:03;;;;;;;8.45;5.68;;;19.20;99.90;;;;;;5052329;28;21461;-65
2023/06/11 00:34:29;;;;;;;13.77;5.97;;;19.20;99.90;;;;;;5040073;28;20472;-64
2023/06/11 00:36:56;;;;;;;10.18;5.75;;;19.20;99.90;;;;;;5046193;28;20040;-64
2023/06/11 00:39:22;;;;;;;13.13;6.00;;;19.10;99.90;;;;;;5014034;28;20185;-64
2023/06/11 00:41:48;;;;;;;10.82;6.05;;;19.20;99.90;;;;;;5051581;28;20048;-65
2023/06/11 00:44:17;;;;;;;11.38;5.53;;;19.20;99.90;;;;;;5033326;28;20048;-66
2023/06/11 00:46:47;;;;;;;13.40;6.18;;;19.20;99.90;;;;;;5081120;28;20435;-65
2023/06/11 00:49:13;;;;;;;9.30;6.10;;;19.20;99.90;;;;;;5033161;28;20386;-64
2023/06/11 00:51:46;;;;;;;7.55;5.53;;;19.20;99.90;;;;;;5062944;28;20435;-65
2023/06/11 00:54:16;;;;;;;15.88;6.32;;;19.10;99.90;;;;;;5051127;28;20503;-64
2023/06/11 00:56:48;;;;;;;11.93;6.65;;;19.10;99.90;;;;;;5042879;28;20155;-64
2023/06/11 00:59:17;;;;;;;9.80;6.20;;;19.10;99.90;;;;;;5028472;28;20615;-65
2023/06/11 01:02:17;;;;;;;15.50;6.63;;;19.10;99.90;;;;;;5045342;28;20052;-64
2023/06/11 01:04:45;;;;;;;11.73;6.55;;;19.10;99.90;;;;;;5049207;28;20041;-63
2023/06/11 01:07:15;;;;;;;9.38;6.13;;;19.10;99.90;;;;;;5044521;28;20044;-63
2023/06/11 01:09:43;;;;;;;11.98;5.80;;;19.10;99.90;;;;;;5048602;28;20679;-65
2023/06/11 01:12:09;;;;;;;10.10;6.55;;;19.10;99.90;;;;;;5054015;28;20040;-64
2023/06/11 01:14:35;;;;;;;10.10;6.97;;;19.00;99.90;;;;;;5045908;28;20037;-64
2023/06/11 01:17:06;;;;;;;9.80;6.82;;;19.00;99.90;;;;;;5047187;28;20170;-64
2023/06/11 01:19:37;;;;;;;10.45;6.63;;;19.00;99.90;;;;;;5048568;28;20049;-63
2023/06/11 01:22:18;;;;;;;14.43;7.32;;;19.00;99.90;;;;;;5047757;28;20048;-64
2023/06/11 01:25:13;;;;;;;11.45;6.55;;;18.90;99.90;;;;;;5049170;28;20457;-64
2023/06/11 01:28:07;;;;;;;9.30;6.38;;;18.90;99.90;;;;;;5048638;28;20048;-64
2023/06/11 01:30:36;;;;;;;12.13;7.30;;;18.80;99.90;;;;;;5038016;28;20624;-65
2023/06/11 01:33:03;;;;;;;12.85;6.70;;;18.80;99.90;;;;;;5053575;28;20484;-64
2023/06/11 01:35:29;;;;;;;11.52;6.57;;;18.80;99.90;;;;;;5049763;28;20049;-65
2023/06/11 01:37:55;;;;;;;10.73;7.00;;;18.70;99.90;;;;;;5047073;28;20123;-66
2023/06/11 01:40:26;;;;;;;10.73;6.57;;;18.80;99.90;;;;;;5065264;28;20617;-64
2023/06/11 01:42:53;;;;;;;14.20;7.20;;;18.80;99.90;;;;;;5048396;28;20103;-64
2023/06/11 01:45:19;;;;;;;9.63;6.80;;;18.70;99.90;;;;;;5050438;28;20115;-65
2023/06/11 01:47:45;;;;;;;10.93;6.80;;;18.70;99.90;;;;;;5050827;28;20101;-65
2023/06/11 01:50:12;;;;;;;12.68;7.18;;;18.70;99.90;;;;;;5035242;28;20059;-64
2023/06/11 01:52:38;;;;;;;9.02;6.63;;;18.70;99.90;;;;;;5049757;28;20037;-64
2023/06/11 01:55:06;;;;;;;16.15;7.07;;;18.60;99.90;;;;;;5039154;28;20048;-65
2023/06/11 01:57:32;;;;;;;15.05;7.53;;;18.60;99.90;;;;;;5047739;28;20032;-66
2023/06/11 01:59:58;;;;;;;9.57;7.25;;;18.60;99.90;;;;;;5049580;28;20401;-64
2023/06/11 02:02:27;;;;;;;13.85;7.50;;;18.60;99.90;;;;;;5047882;28;20079;-63
2023/06/11 02:04:53;;;;;;;11.60;7.15;;;18.50;99.90;;;;;;5047632;28;20094;-64
2023/06/11 02:07:19;;;;;;;11.75;7.63;;;18.50;99.90;;;;;;5048913;28;20825;-64
2023/06/11 02:09:45;;;;;;;10.52;7.40;;;18.50;99.90;;;;;;5047725;28;20106;-64
2023/06/11 02:12:11;;;;;;;10.98;7.30;;;18.50;99.90;;;;;;5066288;28;20033;-64
2023/06/11 02:14:37;;;;;;;9.40;7.22;;;18.40;99.90;;;;;;5047253;28;20037;-66
2023/06/11 02:17:03;;;;;;;14.57;8.05;;;18.40;99.90;;;;;;5033882;28;20098;-64
2023/06/11 02:19:29;;;;;;;12.30;7.82;;;18.40;99.90;;;;;;5049331;28;20818;-65
2023/06/11 02:21:54;;;;;;;10.90;8.25;;;18.40;99.90;;;;;;5047715;28;20040;-63
2023/06/11 02:24:20;;;;;;;10.68;7.97;;;18.30;99.90;;;;;;5045436;28;20494;-65
2023/06/11 02:26:46;;;;;;;13.13;8.15;;;18.30;99.90;;;;;;5049796;28;20040;-64
2023/06/11 02:29:12;;;;;;;13.90;7.45;;;18.30;99.90;;;;;;5002877;28;20535;-64
2023/06/11 02:31:37;;;;;;;13.02;7.60;;;18.30;99.90;;;;;;5049959;28;20035;-64
2023/06/11 02:34:03;;;;;;;16.92;8.45;;;18.20;99.90;;;;;;5051788;28;20040;-64
2023/06/11 02:36:29;;;;;;;18.70;7.93;;;18.20;99.90;;;;;;5057034;28;20041;-63
2023/06/11 02:38:54;;;;;;;13.25;8.15;;;18.20;99.90;;;;;;5054080;28;20048;-64
2023/06/11 03:14:59;;;;;;;14.48;9.05;;;17.90;99.90;;;;;;5380287;22;20053;-64
2023/06/11 03:17:25;;;;;;;11.23;8.45;;;17.90;99.90;;;;;;5016388;28;20056;-64
2023/06/11 03:19:51;;;;;;;11.35;9.52;;;17.90;99.90;;;;;;5044455;28;20033;-64
2023/06/11 03:22:16;;;;;;;16.08;9.20;;;17.80;99.90;;;;;;5025308;28;21381;-64
2023/06/11 03:24:42;;;;;;;12.13;8.63;;;17.80;99.90;;;;;;5017351;28;20041;-65
2023/06/11 03:27:09;;;;;;;12.68;9.20;;;17.80;99.90;;;;;;5039360;28;20052;-64
2023/06/11 03:29:35;;;;;;;13.65;8.88;;;17.80;99.90;;;;;;5025269;28;20085;-64
2023/06/11 03:32:01;;;;;;;11.38;9.05;;;17.80;99.90;;;;;;5041314;28;20033;-66
2023/06/11 03:34:27;;;;;;;13.10;9.27;;;17.70;99.90;;;;;;5022300;28;20040;-64
2023/06/11 03:36:52;;;;;;;12.13;8.50;;;17.70;99.90;;;;;;5039883;28;20044;-64
2023/06/11 03:39:18;;;;;;;12.60;9.27;;;17.70;99.90;;;;;;5021146;28;20051;-65
2023/06/11 03:41:44;;;;;;;11.27;8.55;;;17.70;99.90;;;;;;5041059;28;20041;-65
2023/06/11 03:44:10;;;;;;;10.27;8.88;;;17.70;99.90;;;;;;5042915;28;20457;-64
2023/06/11 03:46:36;;;;;;;11.63;8.82;;;17.70;99.90;;;;;;5043060;28;20130;-64
2023/06/11 03:49:02;;;;;;;11.55;9.00;;;17.70;99.90;;;;;;5030654;28;20033;-66
2023/06/11 03:51:28;;;;;;;11.70;8.73;;;17.70;99.90;;;;;;5051101;28;20032;-66
2023/06/11 03:53:53;;;;;;;14.57;9.30;;;17.70;99.90;;;;;;5026871;28;20044;-65
2023/06/11 03:56:19;;;;;;;10.70;9.23;;;17.80;99.90;;;;;;5040810;28;20029;-65
2023/06/11 03:58:45;;;;;;;11.48;9.27;;;17.70;99.90;;;;;;5044356;28;20052;-65
2023/06/11 04:01:11;;;;;;;12.20;9.70;;;17.70;99.90;;;;;;5027058;28;20094;-65
2023/06/11 04:03:36;;;;;;;13.02;9.57;;;17.70;99.90;;;;;;5032593;28;20179;-65
2023/06/11 04:06:02;;;;;;;15.88;9.32;;;17.70;99.90;;;;;;5022279;28;20497;-63
2023/06/11 04:08:28;;;;;;;14.40;9.40;;;17.70;99.90;;;;;;5040635;28;20045;-64
2023/06/11 04:10:54;;;;;;;9.93;8.55;;;17.70;99.90;;;;;;5039548;28;20033;-64
2023/06/11 04:13:20;;;;;;;12.15;9.75;;;17.80;99.90;;;;;;5036506;28;20041;-64
2023/06/11 04:15:46;;;;;;;14.55;9.88;;;17.80;99.90;;;;;;5010858;28;20186;-64
2023/06/11 04:18:12;;;;;;;11.07;9.57;;;17.80;99.90;;;;;;5012926;28;20052;-63
2023/06/11 04:20:37;;;;;;;11.90;9.60;;;17.80;99.90;;;;;;5013157;28;20041;-64
2023/06/11 04:23:03;;;;;;;13.05;9.48;;;17.80;99.90;;;;;;4977561;28;20107;-66
2023/06/11 04:25:33;;;;;;;11.40;9.68;;;17.80;99.90;;;;;;5009965;28;20045;-64
2023/06/11 04:27:59;;;;;;;14.75;9.57;;;17.80;99.90;;;;;;5008600;28;20045;-65
2023/06/11 04:30:26;;;;;;;13.77;9.70;;;17.90;99.90;;;;;;5028120;28;20064;-65
2023/06/11 04:32:56;;;;;;;13.20;9.15;;;17.90;99.90;;;;;;4991580;28;20091;-66
2023/06/11 04:35:23;;;;;;;12.27;9.50;;;17.90;99.90;;;;;;4998480;28;20046;-64
2023/06/11 04:37:49;;;;;;;12.82;9.18;;;17.90;99.90;;;;;;5007637;28;20465;-65
2023/06/11 04:40:17;;;;;;;11.57;9.35;;;18.00;99.90;;;;;;5008956;28;20410;-66
2023/06/11 04:42:44;;;;;;;11.52;9.02;;;18.00;99.90;;;;;;5000332;28;20045;-65
2023/06/11 04:45:10;;;;;;;12.85;8.88;;;18.00;99.90;;;;;;5011199;28;20076;-64
2023/06/11 04:47:37;;;;;;;12.18;9.55;;;18.00;99.90;;;;;;5009464;28;20045;-64
2023/06/11 04:50:04;;;;;;;11.10;8.82;;;18.00;99.90;;;;;;4978203;28;20052;-65
2023/06/11 04:52:31;;;;;;;10.20;8.98;;;18.10;99.90;;;;;;5010227;28;21657;-64
2023/06/11 04:55:00;;;;;;;17.58;9.60;;;18.10;99.90;;;;;;5012358;28;20037;-65
2023/06/11 04:57:25;;;;;;;15.20;9.13;;;18.10;99.90;;;;;;5006529;28;20046;-64
2023/06/11 04:59:51;;;;;;;14.38;9.52;;;18.20;99.90;;;;;;5011132;28;20508;-64
2023/06/11 05:02:17;;;;;;;16.60;9.70;;;18.20;99.90;;;;;;5008659;28;20049;-64
2023/06/11 05:04:43;;;;;;;11.88;9.52;;;18.20;99.90;;;;;;5009042;28;20126;-65
2023/06/11 05:07:09;;;;;;;12.52;9.35;;;18.20;99.90;;;;;;4977244;28;20052;-64
2023/06/11 05:09:35;;;;;;;13.93;9.10;;;18.30;99.90;;;;;;4991524;28;20048;-65
2023/06/11 05:12:01;;;;;;;13.77;8.85;;;18.20;99.90;;;;;;4991079;28;20668;-64
2023/06/11 05:14:26;;;;;;;12.35;9.10;;;18.30;99.90;;;;;;4990482;28;20052;-64
2023/06/11 05:16:53;;;;;;;17.88;9.45;;;18.30;99.90;;;;;;5011023;28;20393;-66
2023/06/11 05:19:18;;;;;;;11.05;9.10;;;18.30;99.90;;;;;;4997414;28;20293;-65
2023/06/11 05:21:44;;;;;;;11.65;8.98;;;18.40;99.90;;;;;;5007936;28;20045;-64
2023/06/11 05:24:18;;;;;;;15.27;9.20;;;18.40;99.90;;;;;;4976225;28;20045;-64
2023/06/11 05:26:44;;;;;;;15.45;9.65;;;18.50;99.90;;;;;;4979492;28;20034;-64
2023/06/11 05:29:10;;;;;;;11.75;9.05;;;18.50;99.90;;;;;;5014482;28;20112;-64
2023/06/11 05:31:36;;;;;;;13.50;9.52;;;18.50;99.90;;;;;;4990927;28;20065;-65
2023/06/11 05:34:02;;;;;;;12.80;9.32;;;18.50;99.90;;;;;;5010584;28;20045;-64
2023/06/11 05:36:28;;;;;;;10.77;8.88;;;18.60;99.90;;;;;;5009603;28;20037;-64
2023/06/11 05:38:54;;;;;;;11.75;9.02;;;18.60;99.90;;;;;;5011168;28;20041;-64
2023/06/11 05:41:20;;;;;;;14.98;9.75;;;18.60;99.90;;;;;;5008738;28;20068;-64
2023/06/11 05:43:46;;;;;;;12.07;9.50;;;18.70;99.90;;;;;;5010667;28;20456;-65
2023/06/11 05:46:15;;;;;;;11.30;8.80;;;18.70;99.90;;;;;;4979202;28;20053;-66
2023/06/11 05:48:43;;;;;;;17.33;9.25;;;18.70;99.90;;;;;;5009610;28;20524;-63
2023/06/11 05:51:10;;;;;;;13.15;8.75;;;18.80;99.90;;;;;;5032034;28;20037;-65
2023/06/11 05:53:36;;;;;;;11.15;9.32;;;18.90;99.90;;;;;;5016253;28;20034;-66
2023/06/11 05:56:04;;;;;;;13.77;9.07;;;18.90;99.90;;;;;;5008445;28;20040;-65
2023/06/11 05:58:32;;;;;;;12.15;9.52;;;19.00;99.90;;;;;;5018543;28;20041;-65
2023/06/11 06:01:02;;;;;;;13.55;9.18;;;19.00;99.90;;;;;;5002104;28;20053;-64
2023/06/11 06:03:29;;;;;;;14.68;9.05;;;19.10;99.90;;;;;;5014230;28;20129;-66
2023/06/11 06:05:55;;;;;;;12.13;8.93;;;19.20;99.90;;;;;;5000569;28;20123;-64
2023/06/11 06:08:20;;;;;;;10.93;9.02;;;19.30;99.90;;;;;;4999330;28;20559;-65
2023/06/11 06:10:46;;;;;;;10.82;9.07;;;19.30;99.90;;;;;;5018913;28;20045;-65
2023/06/11 06:13:12;;;;;;;12.23;8.85;;;19.40;99.90;;;;;;5016704;28;20034;-63
2023/06/11 06:15:38;;;;;;;11.93;9.13;;;19.50;99.90;;;;;;5015718;28;20584;-64
2023/06/11 06:18:05;;;;;;;13.73;9.15;;;19.60;99.90;;;;;;5013678;28;20038;-64
2023/06/11 06:20:31;;;;;;;12.30;9.07;;;19.70;99.90;;;;;;5022705;28;20048;-64
2023/06/11 06:22:56;;;;;;;10.27;8.63;;;19.80;99.90;;;;;;5016403;28;20518;-66
2023/06/11 06:25:24;;;;;;;10.55;8.63;;;19.90;99.90;;;;;;4972924;28;20471;-64
2023/06/11 06:27:50;;;;;;;13.45;8.98;;;20.00;99.90;;;;;;5011719;28;20351;-64
2023/06/11 06:30:16;;;;;;;10.07;8.68;;;20.00;99.90;;;;;;5014346;28;20049;-64
2023/06/11 06:32:43;;;;;;;14.20;8.45;;;20.10;99.90;;;;;;4965685;28;20041;-66
2023/06/11 06:35:09;;;;;;;12.00;8.45;;;20.20;99.90;;;;;;5003766;28;20041;-65
2023/06/11 06:37:35;;;;;;;12.65;8.73;;;20.30;99.90;;;;;;5004480;28;20067;-66
2023/06/11 06:40:01;;;;;;;17.50;9.07;;;20.40;99.90;;;;;;4993487;28;20055;-64
2023/06/11 06:42:27;;;;;;;10.75;8.45;;;20.50;99.90;;;;;;5006716;28;20485;-64
2023/06/11 06:44:52;;;;;;;9.43;8.45;;;20.60;99.90;;;;;;5003184;28;20033;-66
2023/06/11 06:47:18;;;;;;;13.32;8.77;;;20.70;99.90;;;;;;5016690;28;20041;-64
2023/06/11 06:49:44;;;;;;;10.90;9.15;;;20.80;99.90;;;;;;4998633;28;20049;-65
2023/06/11 06:52:11;;;;;;;10.85;8.13;;;20.90;99.90;;;;;;4999461;28;20042;-66
2023/06/11 06:54:37;;;;;;;11.88;8.63;;;21.00;99.90;;;;;;5022492;28;20045;-64
2023/06/11 06:57:03;;;;;;;15.20;8.77;;;21.10;99.90;;;;;;5017622;28;20045;-64
2023/06/11 06:59:29;;;;;;;16.27;8.68;;;21.20;99.90;;;;;;5020736;28;20047;-64
2023/06/11 07:01:55;;;;;;;13.57;8.90;;;21.30;99.90;;;;;;4971187;28;20045;-64
2023/06/11 07:04:20;;;;;;;13.98;8.57;;;21.40;99.90;;;;;;5008546;28;20409;-66
2023/06/11 07:06:46;;;;;;;11.38;8.80;;;21.50;99.90;;;;;;5020543;28;20045;-65
2023/06/11 07:09:12;;;;;;;14.82;8.55;;;21.60;99.90;;;;;;4985105;28;20068;-66
2023/06/11 07:11:38;;;;;;;12.45;8.07;;;21.70;99.90;;;;;;5014874;28;20485;-67
2023/06/11 07:14:04;;;;;;;10.45;8.05;;;21.70;99.90;;;;;;5012009;28;20056;-65
2023/06/11 07:16:30;;;;;;;12.73;8.02;;;21.90;99.90;;;;;;5019296;28;20513;-63
2023/06/11 07:18:55;;;;;;;16.35;9.00;;;22.00;99.90;;;;;;4983878;28;20529;-65
2023/06/11 07:21:23;;;;;;;9.13;7.97;;;22.10;99.90;;;;;;5010829;28;20049;-65
2023/06/11 07:23:49;;;;;;;11.02;8.50;;;22.20;99.90;;;;;;5018634;28;20041;-64
2023/06/11 07:26:15;;;;;;;14.93;7.97;;;22.30;99.90;;;;;;4999049;28;20116;-65
2023/06/11 07:28:41;;;;;;;11.30;7.95;;;22.40;99.90;;;;;;5012927;28;20544;-66
2023/06/11 07:31:08;;;;;;;15.40;8.00;;;22.50;99.90;;;;;;5016196;28;20033;-64
2023/06/11 07:33:33;;;;;;;11.45;7.55;;;22.60;99.90;;;;;;5014627;28;20083;-64
2023/06/11 07:35:59;;;;;;;12.20;8.10;;;22.70;99.90;;;;;;5018421;28;20505;-66
2023/06/11 07:38:25;;;;;;;11.18;8.25;;;22.80;99.90;;;;;;5015786;28;20033;-66
2023/06/11 07:40:52;;;;;;;10.82;7.97;;;23.00;99.60;;;;;;5009333;28;20068;-66
2023/06/11 07:43:17;;;;;;;11.80;8.35;;;23.00;99.20;;;;;;5014436;28;20036;-65
2023/06/11 07:45:46;;;;;;;9.20;7.65;;;23.10;99.10;;;;;;5009923;28;20045;-66
2023/06/11 07:48:12;;;;;;;11.73;8.07;;;23.20;98.90;;;;;;4990813;28;20046;-67
2023/06/11 07:50:38;;;;;;;12.00;7.90;;;23.30;98.80;;;;;;5000350;28;20048;-66
2023/06/11 07:53:04;;;;;;;10.30;7.93;;;23.40;98.70;;;;;;5017154;28;20709;-67
2023/06/11 07:55:30;;;;;;;10.70;7.70;;;23.50;98.90;;;;;;5010789;28;20042;-67
2023/06/11 07:57:56;;;;;;;10.38;8.30;;;23.60;98.50;;;;;;5000100;28;20044;-67
2023/06/11 08:00:22;;;;;;;15.63;8.32;;;23.70;98.10;;;;;;5010670;28;20781;-67
2023/06/11 08:02:48;;;;;;;16.88;7.85;;;23.80;97.90;;;;;;4989041;28;20045;-66
2023/06/11 08:05:20;;;;;;;11.27;8.25;;;23.90;98.10;;;;;;5009556;28;20045;-66
2023/06/11 08:07:47;;;;;;;11.40;8.73;;;24.00;98.00;;;;;;4994443;28;20038;-66
2023/06/11 08:10:13;;;;;;;12.02;8.57;;;24.10;97.50;;;;;;5006974;28;20137;-67
2023/06/11 08:12:38;;;;;;;10.38;8.07;;;24.20;97.10;;;;;;5024534;28;20025;-66
2023/06/11 08:15:05;;;;;;;18.00;8.10;;;24.30;97.20;;;;;;5006471;28;21512;-68
2023/06/11 08:17:30;;;;;;;11.70;8.75;;;24.40;97.10;;;;;;5009416;28;20050;-68
2023/06/11 08:19:56;;;;;;;8.55;7.22;;;24.50;96.60;;;;;;5012463;28;20557;-68
2023/06/11 08:22:22;;;;;;;8.60;7.38;;;24.50;96.30;;;;;;5010944;28;20053;-68
2023/06/11 08:24:48;;;;;;;10.02;7.45;;;24.60;95.70;;;;;;5031445;28;20037;-69
2023/06/11 08:27:13;;;;;;;10.43;7.95;;;24.70;95.90;;;;;;5011723;28;20041;-69
2023/06/11 08:29:39;;;;;;;9.43;8.00;;;24.80;95.80;;;;;;5012162;28;20088;-69
2023/06/11 08:32:05;;;;;;;13.20;8.45;;;24.90;95.50;;;;;;5014872;28;20048;-69
2023/06/11 08:34:31;;;;;;;11.15;8.05;;;25.00;95.10;;;;;;5009237;28;20041;-69
2023/06/11 08:36:57;;;;;;;11.27;7.70;;;25.00;94.50;;;;;;5008476;28;20042;-69
2023/06/11 08:39:23;;;;;;;9.25;8.27;;;25.10;94.20;;;;;;4995611;28;20076;-68
2023/06/11 08:41:49;;;;;;;8.60;7.70;;;25.20;93.80;;;;;;4992730;28;20046;-69
2023/06/11 08:44:15;;;;;;;11.60;7.70;;;25.30;93.70;;;;;;4993236;28;20407;-68
2023/06/11 08:46:44;;;;;;;10.98;7.95;;;25.40;93.70;;;;;;4993891;28;20084;-67
2023/06/11 08:49:22;;;;;;;12.95;7.70;;;25.50;93.60;;;;;;5008371;28;20049;-66
2023/06/11 08:51:49;;;;;;;9.70;7.95;;;25.60;93.70;;;;;;5007815;28;20401;-68
2023/06/11 08:54:16;;;;;;;11.27;7.10;;;25.70;93.50;;;;;;5006983;28;20044;-67
2023/06/11 08:56:43;;;;;;;10.05;7.93;;;25.90;93.40;;;;;;4996568;28;20048;-65
2023/06/11 08:59:09;;;;;;;8.55;7.22;;;26.00;92.70;;;;;;5005594;28;20048;-64
2023/06/11 09:01:35;;;;;;;13.93;7.13;;;26.10;92.40;;;;;;5004135;28;20037;-63
2023/06/11 09:04:01;;;;;;;11.48;7.18;;;26.30;92.30;;;;;;5005516;28;20495;-66
2023/06/11 09:06:28;;;;;;;9.93;7.68;;;26.40;91.60;;;;;;5002707;28;20041;-67
2023/06/11 09:09:06;;;;;;;10.95;7.55;;;26.50;91.30;;;;;;5004473;28;20056;-66
2023/06/11 09:11:39;;;;;;;8.52;7.50;;;26.60;91.50;;;;;;5011781;28;20052;-66
2023/06/11 09:14:06;;;;;;;9.27;7.47;;;26.70;91.20;;;;;;5016568;28;20060;-66
2023/06/11 09:16:46;;;;;;;7.78;6.80;;;26.70;90.20;;;;;;5013841;28;20116;-66
2023/06/11 09:19:16;;;;;;;8.98;7.25;;;26.80;90.00;;;;;;5007915;28;20405;-65
2023/06/11 09:21:48;;;;;;;10.65;6.90;;;26.80;89.10;;;;;;5011598;28;20053;-66
2023/06/11 09:24:13;;;;;;;11.25;7.50;;;26.90;89.00;;;;;;5009781;28;20045;-66
2023/06/11 09:26:46;;;;;;;9.32;7.30;;;27.00;88.90;;;;;;5013579;28;20383;-66
2023/06/11 09:29:12;;;;;;;8.82;7.10;;;27.10;88.20;;;;;;5018970;28;20044;-65
2023/06/11 09:31:39;;;;;;;11.00;6.82;;;27.30;86.70;;;;;;5012086;28;20029;-66
2023/06/11 09:34:09;;;;;;;9.90;7.10;;;27.30;86.20;;;;;;5007641;28;20041;-67
2023/06/11 09:36:35;;;;;;;10.75;6.70;;;27.40;86.60;;;;;;5005733;28;20490;-66
2023/06/11 09:39:03;;;;;;;11.45;6.78;;;27.60;86.20;;;;;;5009463;28;20050;-66
2023/06/11 09:41:30;;;;;;;7.10;6.40;;;27.70;85.10;;;;;;5010079;28;20721;-67
2023/06/11 09:43:56;;;;;;;13.05;6.50;;;27.90;84.40;;;;;;4999609;28;20048;-65
2023/06/11 09:46:23;;;;;;;8.00;6.78;;;28.10;83.40;;;;;;5011186;28;20137;-65
2023/06/11 09:48:49;;;;;;;7.22;6.32;;;28.30;82.90;;;;;;5009814;28;20059;-66
2023/06/11 09:51:21;;;;;;;8.88;6.63;;;28.30;82.50;;;;;;5011320;28;20057;-65
2023/06/11 09:53:50;;;;;;;7.72;6.93;;;28.50;82.10;;;;;;5001223;28;20055;-66
2023/06/11 09:56:17;;;;;;;7.90;6.45;;;28.60;81.80;;;;;;5008935;28;20042;-64
2023/06/11 09:58:46;;;;;;;10.93;6.75;;;28.70;80.60;;;;;;5011025;28;20048;-66
2023/06/11 10:01:12;;;;;;;8.30;6.43;;;28.80;79.70;;;;;;5006399;28;21518;-66
2023/06/11 10:03:39;;;;;;;8.35;6.38;;;28.90;78.40;;;;;;5006438;28;20048;-66
2023/06/11 10:06:11;;;;;;;7.72;6.30;;;29.00;77.70;;;;;;5008665;28;20045;-66
2023/06/11 10:08:37;;;;;;;8.27;6.25;;;29.10;77.10;;;;;;5007760;28;20084;-66
2023/06/11 10:11:04;;;;;;;8.68;6.00;;;29.20;76.10;;;;;;5002361;28;20038;-64
2023/06/11 10:13:32;;;;;;;7.57;6.40;;;29.20;75.60;;;;;;5005257;28;20494;-68
2023/06/11 10:16:03;;;;;;;8.77;6.38;;;29.30;74.50;;;;;;5007411;28;20049;-67
2023/06/11 10:18:30;;;;;;;7.75;6.15;;;29.40;73.20;;;;;;4970468;28;20030;-67
2023/06/11 10:21:00;;;;;;;10.32;6.05;;;29.40;72.90;;;;;;4996899;28;20362;-67
2023/06/11 10:23:40;;;;;;;7.30;5.93;;;29.50;73.40;;;;;;5007387;28;20041;-68
2023/06/11 10:26:09;;;;;;;6.97;5.70;;;29.60;73.70;;;;;;5013716;28;20046;-67
2023/06/11 10:28:51;;;;;;;7.65;5.25;;;29.80;74.20;;;;;;5013787;28;20692;-67
2023/06/11 10:31:26;;;;;;;10.27;5.55;;;30.00;73.10;;;;;;5009409;28;20051;-68
2023/06/11 10:33:52;;;;;;;7.55;5.18;;;30.10;70.40;;;;;;5015843;28;20352;-67
2023/06/11 10:36:25;;;;;;;8.82;5.47;;;30.10;68.70;;;;;;5015922;28;20402;-67
2023/06/11 10:39:03;;;;;;;8.70;5.35;;;30.10;68.70;;;;;;5027626;28;20534;-67
2023/06/11 10:41:32;;;;;;;7.13;5.30;;;30.20;68.70;;;;;;4997806;28;20484;-67
2023/06/11 10:43:58;;;;;;;7.35;5.20;;;30.40;68.90;;;;;;5017965;28;20036;-67
2023/06/11 10:46:24;;;;;;;7.22;5.65;;;30.50;68.20;;;;;;5008029;28;20040;-69
2023/06/11 10:48:54;;;;;;;7.28;5.43;;;30.60;67.50;;;;;;5014973;28;20057;-70
2023/06/11 10:51:21;;;;;;;7.70;5.40;;;30.70;66.70;;;;;;5017565;28;21488;-69
2023/06/11 10:53:58;;;;;;;6.63;5.95;;;30.80;65.90;;;;;;5013735;28;20540;-67
2023/06/11 10:56:25;;;;;;;7.80;5.25;;;30.90;66.70;;;;;;5015645;28;20038;-69
2023/06/11 10:58:53;;;;;;;10.25;5.45;;;31.00;65.90;;;;;;5010694;28;20041;-69
2023/06/11 11:01:20;;;;;;;8.95;5.35;;;31.10;66.40;;;;;;5010688;28;20096;-69
2023/06/11 11:03:48;;;;;;;5.97;5.03;;;31.20;64.30;;;;;;5009333;28;20364;-67
2023/06/11 11:06:28;;;;;;;9.20;5.65;;;31.30;62.80;;;;;;5009142;28;20120;-68
2023/06/11 11:08:57;;;;;;;8.35;5.30;;;31.30;62.90;;;;;;5007561;28;20448;-67
2023/06/11 11:11:24;;;;;;;5.45;4.75;;;31.40;62.30;;;;;;5007934;28;20044;-67
2023/06/11 11:13:50;;;;;;;7.93;4.45;;;31.40;61.60;;;;;;5008078;28;20029;-67
2023/06/11 11:16:19;;;;;;;6.45;5.20;;;31.40;59.20;;;;;;5012932;28;20065;-68
2023/06/11 11:18:50;;;;;;;8.48;5.20;;;31.50;59.50;;;;;;5007335;28;20053;-68
2023/06/11 11:21:16;;;;;;;6.90;5.30;;;31.50;58.70;;;;;;5025758;28;20049;-68
2023/06/11 11:23:45;;;;;;;10.07;4.78;;;31.60;59.80;;;;;;5009553;28;20034;-68
2023/06/11 11:26:16;;;;;;;10.95;5.00;;;31.60;59.00;;;;;;5009758;28;20038;-68
2023/06/11 11:28:42;;;;;;;5.70;5.18;;;31.70;58.20;;;;;;5011174;28;20115;-68
2023/06/11 11:31:12;;;;;;;13.57;5.50;;;31.70;57.30;;;;;;5006655;28;20038;-68
2023/06/11 11:33:39;;;;;;;5.00;4.50;;;31.60;57.30;;;;;;5010201;28;20037;-66
2023/06/11 11:36:05;;;;;;;9.80;4.65;;;31.80;57.20;;;;;;5018390;28;20038;-68
2023/06/11 11:38:36;;;;;;;8.27;4.68;;;31.80;57.30;;;;;;5015557;28;20103;-66
2023/06/11 11:41:02;;;;;;;5.43;4.50;;;31.90;56.00;;;;;;5014779;28;20038;-69
2023/06/11 11:43:41;;;;;;;7.30;4.40;;;31.90;55.10;;;;;;5012053;28;20121;-69
2023/06/11 11:46:17;;;;;;;9.13;4.38;;;32.00;54.50;;;;;;5017277;28;20033;-69
2023/06/11 11:48:44;;;;;;;9.68;5.15;;;32.00;54.40;;;;;;5014262;28;20041;-66
2023/06/11 11:51:13;;;;;;;6.97;4.38;;;32.00;54.00;;;;;;4996503;28;20042;-67
2023/06/11 11:53:40;;;;;;;4.50;4.10;;;32.00;53.90;;;;;;5006307;28;20115;-68
2023/06/11 11:56:06;;;;;;;5.75;4.20;;;32.10;53.80;;;;;;5007855;28;20042;-66
2023/06/11 11:58:42;;;;;;;8.43;4.50;;;32.20;53.60;;;;;;4994177;28;20069;-68
2023/06/11 12:01:21;;;;;;;6.55;4.47;;;32.30;53.90;;;;;;4991730;28;20038;-68
2023/06/11 12:03:59;;;;;;;8.90;4.78;;;32.50;54.00;;;;;;4995515;28;20128;-66
2023/06/11 12:06:25;;;;;;;6.93;4.60;;;32.60;53.00;;;;;;5010162;28;20439;-67
2023/06/11 12:08:51;;;;;;;5.65;4.25;;;32.60;53.50;;;;;;5010004;28;20705;-67
2023/06/11 12:11:17;;;;;;;5.50;4.38;;;32.70;53.10;;;;;;4991364;28;20068;-68
2023/06/11 12:13:42;;;;;;;7.35;4.82;;;32.80;53.90;;;;;;5008576;28;20037;-69
2023/06/11 12:16:08;;;;;;;6.85;4.50;;;32.90;52.60;;;;;;4967940;28;20657;-67
2023/06/11 12:18:34;;;;;;;5.90;4.85;;;33.00;51.30;;;;;;4966981;28;20393;-68
2023/06/11 12:21:00;;;;;;;7.70;4.53;;;33.00;52.00;;;;;;4983287;28;20042;-67
2023/06/11 12:23:26;;;;;;;6.43;4.80;;;33.10;51.90;;;;;;4985649;28;20070;-66
2023/06/11 12:25:51;;;;;;;7.57;4.70;;;33.20;51.80;;;;;;4968353;28;20038;-67
2023/06/11 12:28:18;;;;;;;7.80;4.72;;;33.30;51.10;;;;;;4956215;28;20049;-67
2023/06/11 12:30:43;;;;;;;7.45;4.40;;;33.30;51.20;;;;;;4975631;28;20045;-67
2023/06/11 12:33:10;;;;;;;6.85;4.93;;;33.30;50.90;;;;;;4986129;28;20038;-67
2023/06/11 12:35:36;;;;;;;5.43;4.55;;;33.30;51.20;;;;;;4969215;28;20401;-67
2023/06/11 12:38:02;;;;;;;7.63;4.63;;;33.40;50.70;;;;;;4952109;28;20048;-68
2023/06/11 12:40:30;;;;;;;5.85;4.70;;;33.50;50.00;;;;;;4970890;28;20050;-68
2023/06/11 12:42:58;;;;;;;6.47;4.53;;;33.70;50.30;;;;;;4971302;28;20666;-69
2023/06/11 12:45:29;;;;;;;6.32;4.53;;;33.70;48.80;;;;;;4973203;28;20046;-68
2023/06/11 12:47:55;;;;;;;7.80;4.38;;;33.80;50.70;;;;;;4984675;28;20512;-69
2023/06/11 12:50:22;;;;;;;9.18;4.97;;;33.90;49.90;;;;;;4987933;28;20057;-68
2023/06/11 12:52:48;;;;;;;5.88;4.45;;;34.10;49.70;;;;;;4970437;28;20048;-68
2023/06/11 12:55:13;;;;;;;7.93;4.72;;;34.20;49.10;;;;;;4957476;28;20386;-67
2023/06/11 12:57:39;;;;;;;7.50;4.68;;;34.20;49.00;;;;;;4971321;28;20057;-64
2023/06/11 13:00:07;;;;;;;9.25;4.25;;;34.30;48.50;;;;;;4990895;28;20389;-63
2023/06/11 13:02:33;;;;;;;6.63;4.40;;;34.20;48.80;;;;;;4988161;28;20490;-63
2023/06/11 13:04:58;;;;;;;6.18;4.65;;;34.30;48.50;;;;;;4960631;28;20086;-63
2023/06/11 13:07:25;;;;;;;5.32;4.70;;;34.30;48.00;;;;;;4988497;28;20049;-63
2023/06/11 13:09:50;;;;;;;7.95;4.60;;;34.30;47.30;;;;;;4977043;28;20051;-62
2023/06/11 13:12:17;;;;;;;6.47;4.40;;;34.30;47.30;;;;;;4973386;28;20490;-63
2023/06/11 13:14:43;;;;;;;8.23;4.60;;;34.30;48.00;;;;;;4978615;28;20054;-63